createdAt,value
2022-08-22T00:00:58.295Z,23.80
2022-08-22T00:03:10.964Z,24.30
2022-08-22T00:07:28.008Z,23.50
2022-08-22T00:13:43.420Z,23.20
2022-08-22T00:20:13.393Z,23.10
2022-08-22T00:26:46.730Z,23.10
2022-08-22T00:32:59.760Z,23.10
2022-08-22T00:39:29.122Z,23.00
2022-08-22T00:46:10.410Z,22.90
2022-08-22T00:52:24.434Z,22.90
2022-08-22T00:58:57.784Z,22.80
2022-08-22T01:05:10.290Z,22.80
2022-08-22T01:11:50.110Z,22.80
2022-08-22T01:18:17.697Z,22.80
2022-08-22T01:25:12.350Z,22.80
2022-08-22T01:31:20.777Z,22.90
2022-08-22T01:37:53.578Z,22.80
2022-08-22T01:44:09.549Z,22.80
2022-08-22T01:50:32.754Z,22.90
2022-08-22T01:56:42.065Z,22.80
2022-08-22T02:03:13.877Z,22.80
2022-08-22T02:09:40.627Z,22.80
2022-08-22T02:16:13.088Z,22.90
2022-08-22T02:22:35.152Z,22.90
2022-08-22T02:28:57.400Z,22.90
2022-08-22T02:35:26.197Z,22.90
2022-08-22T02:41:47.682Z,22.90
2022-08-22T02:48:07.110Z,22.90
2022-08-22T02:54:22.585Z,22.80
2022-08-22T03:00:33.187Z,22.90
2022-08-22T03:06:59.271Z,22.90
2022-08-22T03:13:17.198Z,22.90
2022-08-22T03:20:12.394Z,22.80
2022-08-22T03:26:29.708Z,22.90
2022-08-22T03:32:59.448Z,22.90
2022-08-22T03:39:23.009Z,22.90
2022-08-22T03:46:03.679Z,23.00
2022-08-22T03:53:00.798Z,23.10
2022-08-22T03:59:21.166Z,23.20
2022-08-22T04:05:47.326Z,23.20
2022-08-22T04:12:22.200Z,23.30
2022-08-22T04:18:33.317Z,23.40
2022-08-22T04:24:44.610Z,23.40
2022-08-22T04:31:02.161Z,23.50
2022-08-22T04:37:33.834Z,23.50
2022-08-22T04:43:38.951Z,23.50
2022-08-22T04:49:48.916Z,23.90
2022-08-22T04:56:21.921Z,24.10
2022-08-22T05:02:28.298Z,24.40
2022-08-22T05:08:34.358Z,24.90
2022-08-22T05:14:43.796Z,25.10
2022-08-22T05:20:49.363Z,25.10
2022-08-22T05:26:54.145Z,25.20
2022-08-22T05:32:59.803Z,25.70
2022-08-22T05:39:16.793Z,27.10
2022-08-22T05:45:20.237Z,26.40
2022-08-22T05:51:28.252Z,26.30
2022-08-22T05:57:40.005Z,26.40
2022-08-22T06:04:08.623Z,26.30
2022-08-22T06:10:26.968Z,26.30
2022-08-22T06:16:48.925Z,26.40
2022-08-22T06:22:56.143Z,26.50
2022-08-22T06:29:01.978Z,26.60
2022-08-22T06:35:11.843Z,27.50
2022-08-22T06:41:14.125Z,28.70
2022-08-22T06:47:28.847Z,30.50
2022-08-22T06:53:45.969Z,30.60
2022-08-22T06:59:51.429Z,29.40
2022-08-22T07:05:56.263Z,28.70
2022-08-22T07:12:03.310Z,28.30
2022-08-22T07:18:16.184Z,28.10
2022-08-22T07:24:23.201Z,28.20
2022-08-22T07:30:28.666Z,29.20
2022-08-22T07:36:42.386Z,29.80
2022-08-22T07:42:53.915Z,29.30
2022-08-22T07:49:22.793Z,29.50
2022-08-22T07:55:26.814Z,30.20
2022-08-22T08:01:29.956Z,32.10
2022-08-22T08:07:32.794Z,33.60
2022-08-22T08:13:40.315Z,34.90
2022-08-22T08:19:45.089Z,36.10
2022-08-22T08:26:07.693Z,37.30
2022-08-22T08:32:12.409Z,36.90
2022-08-22T08:38:20.971Z,34.10
2022-08-22T08:44:27.510Z,34.50
2022-08-22T08:50:50.525Z,37.40
2022-08-22T08:57:04.852Z,36.60
2022-08-22T09:03:15.838Z,34.50
2022-08-22T09:09:43.927Z,33.10
2022-08-22T09:16:08.455Z,33.20
2022-08-22T09:22:20.935Z,32.70
2022-08-22T09:28:39.010Z,32.10
2022-08-22T09:34:46.129Z,31.40
2022-08-22T09:41:17.727Z,32.20
2022-08-22T09:47:33.989Z,31.50
2022-08-22T09:54:02.770Z,36.20
2022-08-22T10:00:06.729Z,37.70
2022-08-22T10:06:20.267Z,38.90
2022-08-22T10:12:36.190Z,36.50
2022-08-22T10:19:09.728Z,35.20
2022-08-22T10:25:22.825Z,34.00
2022-08-22T10:31:58.966Z,32.70
2022-08-22T10:38:14.535Z,31.50
2022-08-22T10:44:21.968Z,32.30
2022-08-22T10:50:35.303Z,31.40
2022-08-22T10:56:49.778Z,33.80
2022-08-22T11:03:01.201Z,36.00
2022-08-22T11:09:32.152Z,35.70
2022-08-22T11:16:11.364Z,37.30
2022-08-22T11:22:29.335Z,37.60
2022-08-22T11:28:56.812Z,37.80
2022-08-22T11:35:26.413Z,38.10
2022-08-22T11:41:44.752Z,37.50
2022-08-22T11:48:05.307Z,37.20
2022-08-22T11:54:21.250Z,38.10
2022-08-22T12:01:04.534Z,37.70
2022-08-22T12:07:37.404Z,38.00
2022-08-22T12:14:10.832Z,38.30
2022-08-22T12:20:27.675Z,37.70
2022-08-22T12:26:41.868Z,34.70
2022-08-22T12:33:06.288Z,37.00
2022-08-22T12:39:42.471Z,39.30
2022-08-22T12:46:13.406Z,34.40
2022-08-22T12:52:22.412Z,34.50
2022-08-22T12:58:34.552Z,36.00
2022-08-22T13:04:46.045Z,38.90
2022-08-22T13:10:52.499Z,39.20
2022-08-22T13:17:00.228Z,39.20
2022-08-22T13:23:17.084Z,36.20
2022-08-22T13:29:39.363Z,36.40
2022-08-22T13:35:52.964Z,35.50
2022-08-22T13:41:59.041Z,34.40
2022-08-22T13:48:08.876Z,34.00
2022-08-22T13:54:16.197Z,33.70
2022-08-22T14:00:56.559Z,33.00
2022-08-22T14:07:06.342Z,32.70
2022-08-22T14:13:11.154Z,32.20
2022-08-22T14:19:27.217Z,31.70
2022-08-22T14:25:36.202Z,31.40
2022-08-22T14:31:38.738Z,31.10
2022-08-22T14:37:43.992Z,30.80
2022-08-22T14:44:11.837Z,30.50
2022-08-22T14:50:52.949Z,30.10
2022-08-22T14:56:55.565Z,29.80
2022-08-22T15:03:15.062Z,29.80
2022-08-22T15:09:33.081Z,29.70
2022-08-22T15:15:49.426Z,29.70
2022-08-22T15:22:13.516Z,29.60
2022-08-22T15:28:20.838Z,29.40
2022-08-22T15:34:48.529Z,29.20
2022-08-22T15:40:55.955Z,29.20
2022-08-22T15:47:34.910Z,29.20
2022-08-22T15:53:44.225Z,29.10
2022-08-22T15:59:54.030Z,28.50
2022-08-22T16:06:05.053Z,28.40
2022-08-22T16:12:31.999Z,28.30
2022-08-22T16:18:34.282Z,28.10
2022-08-22T16:24:59.075Z,27.90
2022-08-22T16:31:23.209Z,27.80
2022-08-22T16:37:25.538Z,27.30
2022-08-22T16:43:28.930Z,27.10
2022-08-22T16:49:34.034Z,26.60
2022-08-22T16:56:17.763Z,26.30
2022-08-22T17:02:38.047Z,26.20
2022-08-22T17:09:14.936Z,25.90
2022-08-22T17:15:55.610Z,25.60
2022-08-22T17:22:03.065Z,25.50
2022-08-22T17:28:31.191Z,25.20
2022-08-22T17:35:03.184Z,25.10
2022-08-22T17:41:27.313Z,25.00
2022-08-22T17:47:44.099Z,24.80
2022-08-22T17:53:54.029Z,24.70
2022-08-22T18:00:11.325Z,24.60
2022-08-22T18:06:22.464Z,24.50
2022-08-22T18:12:35.152Z,24.40
2022-08-22T18:18:45.619Z,24.30
2022-08-22T18:25:00.016Z,24.20
2022-08-22T18:31:06.985Z,24.10
2022-08-22T18:37:35.488Z,24.00
2022-08-22T18:43:42.021Z,23.90
2022-08-22T18:49:48.646Z,23.90
2022-08-22T18:56:00.757Z,23.90
2022-08-22T19:02:21.681Z,23.80
2022-08-22T19:08:42.279Z,23.80
2022-08-22T19:14:50.722Z,23.80
2022-08-22T19:21:44.323Z,23.70
2022-08-22T19:28:22.698Z,23.80
2022-08-22T19:34:30.619Z,23.80
2022-08-22T19:40:45.062Z,23.70
2022-08-22T19:47:08.998Z,23.70
2022-08-22T19:53:20.372Z,23.70
2022-08-22T19:59:35.381Z,23.60
2022-08-22T20:06:13.724Z,23.60
2022-08-22T20:12:30.320Z,23.50
2022-08-22T20:19:07.783Z,23.50
2022-08-22T20:25:41.442Z,23.40
2022-08-22T20:31:51.437Z,23.40
2022-08-22T20:38:06.751Z,23.40
2022-08-22T20:44:14.274Z,23.30
2022-08-22T20:50:21.293Z,23.30
2022-08-22T20:56:53.578Z,23.20
2022-08-22T21:03:02.654Z,23.20
2022-08-22T21:09:36.285Z,23.10
2022-08-22T21:15:44.789Z,23.10
2022-08-22T21:21:46.874Z,23.00
2022-08-22T21:27:49.439Z,23.00
2022-08-22T21:33:54.029Z,23.00
2022-08-22T21:40:18.104Z,23.00
2022-08-22T21:46:29.091Z,23.00
2022-08-22T21:52:34.476Z,23.00
2022-08-22T21:58:37.481Z,22.90
2022-08-22T22:04:39.819Z,22.90
2022-08-22T22:10:42.875Z,22.80
2022-08-22T22:16:45.279Z,22.80
2022-08-22T22:22:47.791Z,22.80
2022-08-22T22:28:50.591Z,22.80
2022-08-22T22:34:52.778Z,22.70
2022-08-22T22:40:55.087Z,22.70
2022-08-22T22:47:02.655Z,22.70
2022-08-22T22:53:05.269Z,22.70
2022-08-22T22:59:13.656Z,22.70
2022-08-22T23:05:16.952Z,22.70
2022-08-22T23:11:20.808Z,22.70
2022-08-22T23:17:23.350Z,22.70
2022-08-22T23:23:25.646Z,22.70
2022-08-22T23:29:27.628Z,22.70
2022-08-22T23:35:29.895Z,22.50
2022-08-22T23:41:32.135Z,22.50
2022-08-22T23:47:34.392Z,22.40
2022-08-22T23:53:36.465Z,22.40
2022-08-22T23:59:40.741Z,22.40
